Time;durP1;ratioP1;P1;durP2;ratioP2;P2;SDS_P1;SDS_P2;PMS_P1;PMS_P2;Temp;Humidity;BMP_temperature;BMP_pressure;BME280_temperature;BME280_humidity;BME280_pressure;Samples;Min_cycle;Max_cycle;Signal;HPM_P1;HPM_P2
2021/03/20 00:02:02;;;;;;;1.05;0.95;;;10.60;72.20;;;;;;5072432;28;20083;-44
2021/03/20 00:04:27;;;;;;;1.17;1.00;;;10.60;72.10;;;;;;5072618;28;20055;-43
2021/03/20 00:06:55;;;;;;;1.48;0.90;;;10.60;72.10;;;;;;5072667;28;20071;-44
2021/03/20 00:09:25;;;;;;;1.10;0.98;;;10.60;72.20;;;;;;5072490;28;20124;-43
2021/03/20 00:11:53;;;;;;;0.95;0.85;;;10.50;72.10;;;;;;5072395;28;20090;-45
2021/03/20 00:14:22;;;;;;;1.00;0.90;;;10.50;72.10;;;;;;5072339;28;20614;-44
2021/03/20 00:16:47;;;;;;;1.25;1.10;;;10.50;72.10;;;;;;5072391;28;20055;-43
2021/03/20 00:19:14;;;;;;;1.25;1.10;;;10.50;72.20;;;;;;5072284;28;20048;-42
2021/03/20 00:21:40;;;;;;;2.30;1.20;;;10.60;72.20;;;;;;5072467;28;20175;-43
2021/03/20 00:24:06;;;;;;;0.82;0.80;;;10.50;72.10;;;;;;5072452;28;20115;-42
2021/03/20 00:26:32;;;;;;;1.00;0.90;;;10.50;72.10;;;;;;5072380;28;20154;-46
2021/03/20 00:28:58;;;;;;;1.20;1.10;;;10.50;72.20;;;;;;5072439;28;20163;-42
2021/03/20 00:31:24;;;;;;;1.35;1.10;;;10.50;72.20;;;;;;5072180;28;20044;-40
2021/03/20 00:33:50;;;;;;;1.58;0.95;;;10.60;72.20;;;;;;5072132;28;20126;-44
2021/03/20 00:36:17;;;;;;;0.77;0.77;;;10.50;72.20;;;;;;5072129;28;20091;-43
2021/03/20 00:38:43;;;;;;;1.30;1.00;;;10.50;72.20;;;;;;5073259;28;20037;-46
2021/03/20 00:41:10;;;;;;;1.30;1.17;;;10.60;72.20;;;;;;5076079;28;20075;-46
2021/03/20 00:43:36;;;;;;;1.08;0.93;;;10.50;72.20;;;;;;5076079;28;20044;-42
2021/03/20 00:46:04;;;;;;;1.10;1.00;;;10.50;72.20;;;;;;5076051;28;20051;-48
2021/03/20 00:48:33;;;;;;;0.63;0.57;;;10.50;72.20;;;;;;5075772;28;20056;-50
2021/03/20 00:50:59;;;;;;;0.85;0.80;;;10.50;72.20;;;;;;5075955;28;20052;-42
2021/03/20 00:53:25;;;;;;;1.42;1.00;;;10.50;72.20;;;;;;5075850;28;20048;-47
2021/03/20 00:55:51;;;;;;;1.38;1.13;;;10.50;72.20;;;;;;5075878;28;20131;-45
2021/03/20 00:58:23;;;;;;;1.63;1.02;;;10.50;72.20;;;;;;5075774;28;20055;-45
2021/03/20 01:00:51;;;;;;;1.20;1.10;;;10.50;72.20;;;;;;5057952;28;20048;-45
2021/03/20 01:03:17;;;;;;;2.25;1.10;;;10.50;72.20;;;;;;5075491;28;20056;-45
2021/03/20 01:05:43;;;;;;;1.10;1.00;;;10.50;72.20;;;;;;5075661;28;20049;-46
2021/03/20 01:08:09;;;;;;;1.58;1.30;;;10.50;72.30;;;;;;5075701;28;20562;-41
2021/03/20 01:10:35;;;;;;;1.30;1.20;;;10.50;72.20;;;;;;5075583;28;20131;-45
2021/03/20 01:13:01;;;;;;;1.27;1.17;;;10.50;72.20;;;;;;5075490;28;20084;-46
2021/03/20 01:15:26;;;;;;;0.85;0.85;;;10.50;72.30;;;;;;5075236;28;20177;-45
2021/03/20 01:17:52;;;;;;;1.13;1.02;;;10.50;72.30;;;;;;5075284;28;20048;-47
2021/03/20 01:20:18;;;;;;;1.63;1.27;;;10.50;72.90;;;;;;5075158;28;20052;-46
2021/03/20 01:22:44;;;;;;;0.90;0.90;;;10.50;72.30;;;;;;5075290;28;20048;-47
2021/03/20 01:25:10;;;;;;;1.33;1.10;;;10.50;72.30;;;;;;5075312;28;20045;-45
2021/03/20 01:27:36;;;;;;;1.48;1.27;;;10.50;72.30;;;;;;5075076;28;20044;-46
2021/03/20 01:30:13;;;;;;;1.23;1.13;;;10.50;72.30;;;;;;5075307;28;20397;-45
2021/03/20 01:32:39;;;;;;;1.77;1.20;;;10.50;72.30;;;;;;5075320;28;20053;-45
2021/03/20 01:35:06;;;;;;;1.27;1.10;;;10.50;72.30;;;;;;5074697;28;20044;-45
2021/03/20 01:37:31;;;;;;;1.20;1.10;;;10.50;72.30;;;;;;5055105;28;20068;-43
2021/03/20 01:39:57;;;;;;;1.58;1.08;;;10.50;72.30;;;;;;5055011;28;20080;-42
2021/03/20 01:42:23;;;;;;;1.67;1.30;;;10.50;72.30;;;;;;5054741;28;20049;-43
2021/03/20 01:45:20;;;;;;;2.03;1.48;;;10.40;72.90;;;;;;5054699;28;20049;-45
2021/03/20 01:47:59;;;;;;;1.60;1.50;;;10.50;72.30;;;;;;5054955;28;20065;-44
2021/03/20 01:50:38;;;;;;;1.65;1.55;;;10.50;72.30;;;;;;5053467;28;20048;-44
2021/03/20 01:53:37;;;;;;;1.67;1.48;;;10.40;72.30;;;;;;5054754;28;20485;-43
2021/03/20 01:56:12;;;;;;;1.70;1.25;;;10.40;72.40;;;;;;5054692;28;20384;-43
2021/03/20 01:58:41;;;;;;;1.40;1.20;;;10.40;72.30;;;;;;5054829;28;20056;-43
2021/03/20 02:01:09;;;;;;;2.20;1.58;;;10.40;72.40;;;;;;5054523;28;20045;-45
2021/03/20 02:03:36;;;;;;;1.50;1.40;;;10.40;72.30;;;;;;5054761;28;20056;-45
2021/03/20 02:06:03;;;;;;;2.05;1.50;;;10.40;72.40;;;;;;5035747;28;20048;-43
2021/03/20 02:08:29;;;;;;;1.90;1.40;;;10.50;72.40;;;;;;5054622;28;20053;-45
2021/03/20 02:11:26;;;;;;;1.98;1.67;;;10.40;72.40;;;;;;5054400;28;20508;-42
2021/03/20 02:14:16;;;;;;;1.33;1.20;;;10.40;72.40;;;;;;5054370;28;20045;-43
2021/03/20 02:16:55;;;;;;;1.85;1.33;;;10.40;72.40;;;;;;5054560;28;20051;-42
2021/03/20 02:19:57;;;;;;;2.10;1.55;;;10.40;72.40;;;;;;5054452;28;20068;-43
2021/03/20 02:23:17;;;;;;;2.70;1.50;;;10.40;72.40;;;;;;5054238;28;20052;-43
2021/03/20 02:25:48;;;;;;;1.60;1.50;;;10.40;72.40;;;;;;4954102;29;20047;-43
2021/03/20 02:28:26;;;;;;;3.83;1.60;;;10.40;72.40;;;;;;4954170;29;20059;-44
2021/03/20 02:31:08;;;;;;;1.90;1.50;;;10.40;72.50;;;;;;4954144;29;20054;-44
2021/03/20 02:34:00;;;;;;;1.58;1.48;;;10.40;72.40;;;;;;4953831;29;20062;-45
2021/03/20 02:36:50;;;;;;;1.52;1.20;;;10.40;72.40;;;;;;4964312;28;20155;-45
2021/03/20 02:39:40;;;;;;;1.75;1.55;;;10.40;72.50;;;;;;4973073;28;20054;-45
2021/03/20 02:42:43;;;;;;;2.72;2.00;;;10.40;72.40;;;;;;4973239;28;20129;-43
2021/03/20 02:45:22;;;;;;;2.13;1.60;;;10.40;72.50;;;;;;4896559;29;20131;-45
2021/03/20 02:47:57;;;;;;;1.80;1.50;;;10.40;72.50;;;;;;4896676;29;20116;-45
2021/03/20 02:50:30;;;;;;;2.13;1.50;;;10.40;72.50;;;;;;4896710;29;20103;-46
2021/03/20 02:53:06;;;;;;;2.47;1.35;;;10.30;72.40;;;;;;4896065;29;20060;-50
2021/03/20 02:55:50;;;;;;;3.22;1.73;;;10.40;72.50;;;;;;4896584;29;20064;-49
2021/03/20 02:58:31;;;;;;;1.83;1.50;;;10.40;72.50;;;;;;4896555;29;20454;-49
2021/03/20 03:01:03;;;;;;;1.42;1.33;;;10.40;72.50;;;;;;4972762;28;20423;-40
2021/03/20 03:03:33;;;;;;;2.20;1.70;;;10.30;72.50;;;;;;4972542;28;20069;-44
2021/03/20 03:06:08;;;;;;;1.70;1.52;;;10.40;72.50;;;;;;4972451;28;20093;-43
2021/03/20 03:08:47;;;;;;;2.30;1.48;;;10.30;72.50;;;;;;4972328;28;20050;-44
2021/03/20 03:11:14;;;;;;;1.85;1.52;;;10.30;72.50;;;;;;4972550;28;20142;-45
2021/03/20 03:14:08;;;;;;;2.63;1.70;;;10.30;72.50;;;;;;4972546;28;20078;-46
2021/03/20 03:16:43;;;;;;;1.77;1.60;;;10.30;72.50;;;;;;4970537;28;20138;-44
2021/03/20 03:19:15;;;;;;;1.73;1.48;;;10.40;72.50;;;;;;4972557;28;20051;-44
2021/03/20 03:21:44;;;;;;;1.88;1.65;;;10.30;72.50;;;;;;5003518;28;20057;-42
2021/03/20 03:24:15;;;;;;;2.17;1.80;;;10.30;72.60;;;;;;5072971;28;20055;-45
2021/03/20 03:26:47;;;;;;;1.83;1.65;;;10.30;72.60;;;;;;5073149;28;20484;-45
2021/03/20 03:29:17;;;;;;;2.63;1.63;;;10.40;72.60;;;;;;5072992;28;20040;-43
2021/03/20 03:31:56;;;;;;;1.55;1.45;;;10.30;72.50;;;;;;5073353;28;20056;-45
2021/03/20 03:34:32;;;;;;;1.70;1.50;;;10.30;72.50;;;;;;5073049;28;20412;-45
2021/03/20 03:37:10;;;;;;;1.75;1.65;;;10.30;72.50;;;;;;5072872;28;20057;-46
2021/03/20 03:39:44;;;;;;;2.40;1.80;;;10.30;72.60;;;;;;5072593;28;20056;-43
2021/03/20 03:42:13;;;;;;;2.03;1.33;;;10.30;72.60;;;;;;5073076;28;20055;-47
2021/03/20 03:44:42;;;;;;;2.10;1.60;;;10.30;72.60;;;;;;5073035;28;20052;-45
2021/03/20 03:47:10;;;;;;;2.03;1.52;;;10.30;72.60;;;;;;5073020;28;20485;-47
2021/03/20 03:49:36;;;;;;;2.20;1.80;;;10.30;72.60;;;;;;5072835;28;20386;-45
2021/03/20 03:52:03;;;;;;;1.65;1.55;;;10.30;72.60;;;;;;5072864;28;20052;-47
2021/03/20 03:54:30;;;;;;;1.65;1.40;;;10.30;72.60;;;;;;5072217;28;20105;-45
2021/03/20 03:57:14;;;;;;;2.17;1.80;;;10.30;72.60;;;;;;5054485;28;20064;-46
2021/03/20 03:59:57;;;;;;;2.42;1.67;;;10.30;72.60;;;;;;5072946;28;20479;-45
2021/03/20 04:02:59;;;;;;;2.58;1.60;;;10.30;72.60;;;;;;5072636;28;20044;-49
2021/03/20 04:05:45;;;;;;;2.35;1.50;;;10.30;72.60;;;;;;5072819;28;20403;-46
2021/03/20 04:08:47;;;;;;;2.40;1.70;;;10.30;72.60;;;;;;5072722;28;20052;-45
2021/03/20 04:11:30;;;;;;;2.65;1.40;;;10.30;72.60;;;;;;5072568;28;20507;-45
2021/03/20 04:14:16;;;;;;;1.90;1.48;;;10.30;72.70;;;;;;5074124;28;20049;-43
2021/03/20 04:16:52;;;;;;;1.83;1.60;;;10.30;72.60;;;;;;5076735;28;20402;-44
2021/03/20 04:19:27;;;;;;;1.95;1.63;;;10.30;72.70;;;;;;5076602;28;20055;-47
2021/03/20 04:21:54;;;;;;;;;;;10.30;72.70;;;;;;5076776;28;20044;-42
2021/03/20 04:24:40;;;;;;;1.83;1.52;;;10.30;72.70;;;;;;5076401;28;19920;-45
2021/03/20 04:27:13;;;;;;;2.28;2.00;;;10.30;72.80;;;;;;5076672;28;20052;-44
2021/03/20 04:29:45;;;;;;;2.60;1.65;;;10.30;72.70;;;;;;5076595;28;20411;-45
2021/03/20 04:32:13;;;;;;;1.95;1.60;;;10.30;72.70;;;;;;5076401;28;20102;-45
2021/03/20 04:34:56;;;;;;;1.92;1.40;;;10.20;72.60;;;;;;5076067;28;20068;-45
2021/03/20 04:37:26;;;;;;;1.75;1.50;;;10.20;72.70;;;;;;5076128;28;20057;-45
2021/03/20 04:39:54;;;;;;;1.90;1.35;;;10.30;72.70;;;;;;5075961;28;20052;-44
2021/03/20 04:42:29;;;;;;;1.73;1.50;;;10.20;72.70;;;;;;5076354;28;20051;-45
2021/03/20 04:44:59;;;;;;;2.30;1.67;;;10.20;72.70;;;;;;5075893;28;20049;-45
2021/03/20 04:47:27;;;;;;;1.60;1.45;;;10.20;72.70;;;;;;5076249;28;20489;-46
2021/03/20 04:49:58;;;;;;;1.98;1.52;;;10.20;72.70;;;;;;5075971;28;20489;-45
2021/03/20 04:52:34;;;;;;;2.63;1.40;;;10.20;72.70;;;;;;5076257;28;20060;-46
2021/03/20 04:55:04;;;;;;;1.63;1.35;;;10.20;72.70;;;;;;5075666;28;20049;-43
2021/03/20 04:57:56;;;;;;;1.70;1.58;;;10.20;72.70;;;;;;5075761;28;20083;-43
2021/03/20 05:00:36;;;;;;;2.50;1.65;;;10.20;72.70;;;;;;5076131;28;20075;-44
2021/03/20 05:03:26;;;;;;;2.42;1.70;;;10.20;72.80;;;;;;5075819;28;20485;-45
2021/03/20 05:06:14;;;;;;;1.75;1.58;;;10.20;72.80;;;;;;5075721;28;20056;-43
2021/03/20 05:08:42;;;;;;;2.33;1.77;;;10.20;72.80;;;;;;5075755;28;20044;-43
2021/03/20 05:11:46;;;;;;;2.80;1.63;;;10.20;72.80;;;;;;5075363;28;20049;-45
2021/03/20 05:14:30;;;;;;;1.60;1.50;;;10.20;72.80;;;;;;4993708;28;20098;-41
2021/03/20 05:16:58;;;;;;;1.98;1.50;;;10.20;72.80;;;;;;4994223;28;20407;-45
2021/03/20 05:19:27;;;;;;;1.40;1.25;;;10.20;72.80;;;;;;4994145;28;20491;-42
2021/03/20 05:21:55;;;;;;;1.73;1.40;;;10.20;72.80;;;;;;4994207;28;20112;-43
2021/03/20 05:24:20;;;;;;;2.00;1.52;;;10.20;72.80;;;;;;4993715;28;20061;-43
2021/03/20 05:26:47;;;;;;;1.60;1.50;;;10.20;72.80;;;;;;4993479;28;20503;-44
2021/03/20 05:29:13;;;;;;;3.03;1.55;;;10.20;72.80;;;;;;4993736;28;20438;-45
2021/03/20 05:31:39;;;;;;;1.95;1.75;;;10.20;72.90;;;;;;4993680;28;20128;-50
2021/03/20 05:34:36;;;;;;;1.90;1.55;;;10.30;72.90;;;;;;4993323;28;20050;-49
2021/03/20 05:37:03;;;;;;;1.90;1.73;;;10.20;72.80;;;;;;4934849;29;20044;-41
2021/03/20 05:39:29;;;;;;;2.40;1.65;;;10.20;72.80;;;;;;4934872;29;20146;-43
2021/03/20 05:42:29;;;;;;;1.95;1.70;;;10.20;72.80;;;;;;4934640;29;20074;-40
2021/03/20 05:45:27;;;;;;;1.95;1.50;;;10.20;72.80;;;;;;4935697;29;20083;-42
2021/03/20 05:48:10;;;;;;;2.83;1.85;;;10.20;72.80;;;;;;4935583;29;20152;-41
2021/03/20 05:51:14;;;;;;;1.55;1.25;;;10.20;72.90;;;;;;4943501;28;20055;-42
2021/03/20 05:54:16;;;;;;;1.67;1.58;;;10.20;72.80;;;;;;4974067;28;20083;-39
2021/03/20 05:57:07;;;;;;;2.03;1.58;;;10.20;72.80;;;;;;4974107;28;20491;-42
2021/03/20 06:00:02;;;;;;;1.73;1.45;;;10.20;72.90;;;;;;4973956;28;20058;-43
2021/03/20 06:02:54;;;;;;;1.67;1.58;;;10.20;73.50;;;;;;4973958;28;20125;-43
2021/03/20 06:05:42;;;;;;;2.13;1.40;;;10.30;72.90;;;;;;4973934;28;20055;-43
2021/03/20 06:08:46;;;;;;;2.40;1.52;;;10.20;72.90;;;;;;4973670;28;20062;-41
2021/03/20 06:11:34;;;;;;;2.00;1.52;;;10.20;72.90;;;;;;4973688;28;20091;-43
2021/03/20 06:14:31;;;;;;;1.65;1.55;;;10.20;72.90;;;;;;5032794;28;20057;-41
2021/03/20 06:17:12;;;;;;;1.70;1.50;;;10.10;72.80;;;;;;5054489;28;20053;-42
2021/03/20 06:19:55;;;;;;;2.28;1.63;;;10.20;72.90;;;;;;5054445;28;20107;-41
2021/03/20 06:22:29;;;;;;;2.28;1.48;;;10.10;72.80;;;;;;5054316;28;20049;-41
2021/03/20 06:25:32;;;;;;;1.70;1.42;;;10.20;72.90;;;;;;5036477;28;20114;-43
2021/03/20 06:27:58;;;;;;;1.63;1.50;;;10.10;72.80;;;;;;5053975;28;20049;-42
2021/03/20 06:30:43;;;;;;;2.20;1.48;;;10.10;72.80;;;;;;5054242;28;20041;-42
2021/03/20 06:33:25;;;;;;;3.15;1.73;;;10.10;72.90;;;;;;5054282;28;20137;-41
2021/03/20 06:35:59;;;;;;;1.42;1.33;;;10.10;72.80;;;;;;5053703;28;20052;-41
2021/03/20 06:38:44;;;;;;;2.10;1.90;;;10.20;72.90;;;;;;5073681;28;20044;-43
2021/03/20 06:41:31;;;;;;;3.03;2.30;;;10.20;72.90;;;;;;5074250;28;20127;-42
2021/03/20 06:44:01;;;;;;;1.65;1.52;;;10.20;72.90;;;;;;5073786;28;20131;-42
2021/03/20 06:46:33;;;;;;;1.90;1.52;;;10.20;72.90;;;;;;5073875;28;20044;-47
2021/03/20 06:49:19;;;;;;;1.67;1.50;;;10.20;73.00;;;;;;5073781;28;20067;-47
2021/03/20 06:51:45;;;;;;;;;;;10.10;72.90;;;;;;5073982;28;20045;-46
2021/03/20 06:54:12;;;;;;;;;;;10.10;72.90;;;;;;5074239;28;20368;-48
2021/03/20 06:56:38;;;;;;;1.60;1.45;;;10.10;72.90;;;;;;5073714;28;19965;-47
2021/03/20 06:59:12;;;;;;;2.78;1.67;;;10.10;72.90;;;;;;5073064;28;20127;-49
2021/03/20 07:01:51;;;;;;;2.20;1.65;;;10.10;72.90;;;;;;5073405;28;20179;-49
2021/03/20 07:04:54;;;;;;;2.58;1.70;;;10.10;72.90;;;;;;5073630;28;20121;-38
2021/03/20 07:07:33;;;;;;;3.05;1.80;;;10.10;72.90;;;;;;5073440;28;20044;-45
2021/03/20 07:10:00;;;;;;;1.55;1.45;;;10.10;72.90;;;;;;5057716;28;20053;-45
2021/03/20 07:12:26;;;;;;;1.73;1.45;;;10.10;72.90;;;;;;5053575;28;20049;-49
2021/03/20 07:14:59;;;;;;;1.98;1.65;;;10.10;72.90;;;;;;5059552;28;20048;-45
2021/03/20 07:17:38;;;;;;;2.25;1.95;;;10.10;73.60;;;;;;5073463;28;20040;-46
2021/03/20 07:20:21;;;;;;;1.75;1.60;;;10.10;73.00;;;;;;5073378;28;20060;-45
2021/03/20 07:22:48;;;;;;;1.40;1.30;;;10.10;73.00;;;;;;5073218;28;20071;-47
2021/03/20 07:25:34;;;;;;;1.65;1.55;;;10.10;72.90;;;;;;5073113;28;20558;-44
2021/03/20 07:28:22;;;;;;;2.10;1.58;;;10.10;73.00;;;;;;5058747;28;20053;-45
2021/03/20 07:31:13;;;;;;;2.20;1.90;;;10.10;72.90;;;;;;5051306;28;20444;-43
2021/03/20 07:33:48;;;;;;;2.95;1.65;;;10.10;73.00;;;;;;5048959;28;20147;-40
2021/03/20 07:36:28;;;;;;;2.20;1.73;;;10.10;73.00;;;;;;5051629;28;20085;-43
2021/03/20 07:39:20;;;;;;;1.90;1.60;;;10.10;73.00;;;;;;5051976;28;20041;-46
2021/03/20 07:41:54;;;;;;;1.58;1.45;;;10.10;73.00;;;;;;5053102;28;20052;-48
2021/03/20 07:44:21;;;;;;;1.70;1.60;;;10.10;73.00;;;;;;5053243;28;20044;-44
2021/03/20 07:46:48;;;;;;;1.70;1.60;;;10.10;73.00;;;;;;5052736;28;20059;-49
2021/03/20 07:49:17;;;;;;;1.70;1.33;;;10.10;73.00;;;;;;5051924;28;20409;-44
2021/03/20 07:51:46;;;;;;;1.83;1.70;;;10.10;73.00;;;;;;5052833;28;20405;-48
2021/03/20 07:54:21;;;;;;;1.85;1.65;;;10.10;73.00;;;;;;5052967;28;20374;-47
2021/03/20 07:56:47;;;;;;;3.28;1.83;;;10.10;73.10;;;;;;5052873;28;20051;-46
2021/03/20 07:59:26;;;;;;;2.03;1.60;;;10.10;73.10;;;;;;5052786;28;20055;-49
2021/03/20 08:02:01;;;;;;;1.70;1.60;;;10.10;73.00;;;;;;5052304;28;20049;-46
2021/03/20 08:04:48;;;;;;;2.00;1.60;;;10.10;73.00;;;;;;5052504;28;20527;-45
2021/03/20 08:07:37;;;;;;;1.83;1.60;;;10.10;73.10;;;;;;5052613;28;20041;-42
2021/03/20 08:10:12;;;;;;;2.03;1.70;;;10.20;73.10;;;;;;5052510;28;20055;-48
2021/03/20 08:12:54;;;;;;;1.95;1.42;;;10.10;73.10;;;;;;5052638;28;20557;-41
2021/03/20 08:15:47;;;;;;;1.63;1.50;;;10.20;73.10;;;;;;5052332;28;20516;-39
2021/03/20 08:18:25;;;;;;;1.88;1.60;;;10.10;73.10;;;;;;5029703;28;20060;-40
2021/03/20 08:21:14;;;;;;;1.63;1.40;;;10.20;73.10;;;;;;5052558;28;20056;-39
2021/03/20 08:24:08;;;;;;;2.35;1.83;;;10.10;73.00;;;;;;5052704;28;20131;-40
2021/03/20 08:26:46;;;;;;;2.53;1.88;;;10.20;73.10;;;;;;5052604;28;20071;-39
2021/03/20 08:29:25;;;;;;;1.98;1.50;;;10.10;73.10;;;;;;5052361;28;20123;-40
2021/03/20 08:32:02;;;;;;;1.70;1.40;;;10.20;73.10;;;;;;5059842;28;20055;-40
2021/03/20 08:34:39;;;;;;;2.72;1.50;;;10.10;73.10;;;;;;5067142;28;20136;-40
2021/03/20 08:37:11;;;;;;;1.52;1.30;;;10.10;73.10;;;;;;5052133;28;20081;-40
2021/03/20 08:40:07;;;;;;;1.75;1.50;;;10.10;73.10;;;;;;5052416;28;20049;-40
2021/03/20 08:43:02;;;;;;;2.10;1.35;;;10.20;73.10;;;;;;5053147;28;20528;-42
2021/03/20 08:45:33;;;;;;;2.13;1.48;;;10.20;73.10;;;;;;5052219;28;20052;-42
2021/03/20 08:48:11;;;;;;;1.77;1.60;;;10.20;73.10;;;;;;5052042;28;20056;-43
2021/03/20 08:50:49;;;;;;;2.35;1.83;;;10.20;73.10;;;;;;5052213;28;20047;-40
2021/03/20 08:53:20;;;;;;;2.20;1.77;;;10.20;73.10;;;;;;5053139;28;20045;-39
2021/03/20 08:55:59;;;;;;;1.90;1.70;;;10.20;73.10;;;;;;5057716;28;20040;-41
2021/03/20 08:58:31;;;;;;;1.98;1.50;;;10.20;73.10;;;;;;5072091;28;20044;-41
2021/03/20 09:01:03;;;;;;;1.95;1.67;;;10.20;73.10;;;;;;5074975;28;20131;-41
2021/03/20 09:03:42;;;;;;;1.95;1.75;;;10.20;73.10;;;;;;5073806;28;20053;-40
2021/03/20 09:06:19;;;;;;;1.52;1.40;;;10.20;73.10;;;;;;5075714;28;20129;-42
2021/03/20 09:08:47;;;;;;;2.58;1.73;;;10.20;73.00;;;;;;5075882;28;20044;-42
2021/03/20 09:11:20;;;;;;;2.00;1.70;;;10.20;73.00;;;;;;5075602;28;20052;-42
2021/03/20 09:13:55;;;;;;;2.45;1.83;;;10.20;73.00;;;;;;5073480;28;20047;-40
2021/03/20 09:16:26;;;;;;;1.57;1.47;;;10.30;73.10;;;;;;5065726;28;20044;-40
2021/03/20 09:18:54;;;;;;;1.73;1.50;;;10.30;73.10;;;;;;5055437;28;20045;-40
2021/03/20 09:21:20;;;;;;;1.98;1.60;;;10.30;73.10;;;;;;5055445;28;20488;-39
2021/03/20 09:23:48;;;;;;;1.60;1.50;;;10.30;73.00;;;;;;5055515;28;20616;-40
2021/03/20 09:26:36;;;;;;;1.90;1.40;;;10.30;73.00;;;;;;5056418;28;20124;-40
2021/03/20 09:29:22;;;;;;;2.10;1.65;;;10.30;73.00;;;;;;5055311;28;20489;-40
2021/03/20 09:32:09;;;;;;;1.70;1.60;;;10.30;73.00;;;;;;5055523;28;20045;-43
2021/03/20 09:34:37;;;;;;;2.10;1.65;;;10.30;73.00;;;;;;5055507;28;20053;-39
2021/03/20 09:37:19;;;;;;;3.35;1.70;;;10.30;73.00;;;;;;5055039;28;20386;-39
2021/03/20 09:39:51;;;;;;;2.20;1.55;;;10.30;73.00;;;;;;5055007;28;20558;-39
2021/03/20 09:42:26;;;;;;;2.08;1.50;;;10.30;73.00;;;;;;5055152;28;20041;-39
2021/03/20 09:44:56;;;;;;;2.00;1.63;;;10.30;73.00;;;;;;5055198;28;20049;-38
2021/03/20 09:47:46;;;;;;;2.17;1.55;;;10.40;73.00;;;;;;5056217;28;20107;-41
2021/03/20 09:50:21;;;;;;;1.92;1.42;;;10.40;73.00;;;;;;4954419;29;20582;-40
2021/03/20 09:53:09;;;;;;;1.80;1.48;;;10.40;73.00;;;;;;4954569;29;20055;-39
2021/03/20 09:55:36;;;;;;;1.40;1.30;;;10.40;73.00;;;;;;4945680;29;20130;-39
2021/03/20 09:58:20;;;;;;;1.70;1.20;;;10.40;73.00;;;;;;4955570;28;20047;-40
2021/03/20 10:00:52;;;;;;;1.95;1.40;;;10.40;73.00;;;;;;4954554;29;20059;-39
2021/03/20 10:04:11;;;;;;;2.03;1.60;;;10.40;72.90;;;;;;4954557;29;20051;-38
2021/03/20 10:06:41;;;;;;;1.95;1.70;;;10.40;72.90;;;;;;4955035;28;20051;-39
2021/03/20 10:09:07;;;;;;;2.58;2.13;;;10.40;72.90;;;;;;4954327;29;20062;-40
2021/03/20 10:11:40;;;;;;;2.00;1.60;;;10.40;72.90;;;;;;4953416;28;20051;-38
2021/03/20 10:14:25;;;;;;;1.80;1.55;;;10.40;72.90;;;;;;4954338;29;20122;-39
2021/03/20 10:17:08;;;;;;;1.70;1.60;;;10.40;72.90;;;;;;4953862;29;20047;-39
2021/03/20 10:19:45;;;;;;;2.03;1.60;;;10.40;72.80;;;;;;4972424;28;20058;-39
2021/03/20 10:22:27;;;;;;;1.92;1.58;;;10.40;72.80;;;;;;4972542;28;20081;-39
2021/03/20 10:24:54;;;;;;;2.00;1.60;;;10.40;72.80;;;;;;4973446;28;20042;-39
2021/03/20 10:27:28;;;;;;;1.50;1.40;;;10.50;72.90;;;;;;5029841;28;20500;-39
2021/03/20 10:29:53;;;;;;;1.25;1.15;;;10.40;72.80;;;;;;5072614;28;20056;-40
2021/03/20 10:32:22;;;;;;;1.60;1.38;;;10.40;72.80;;;;;;5074372;28;20056;-39
2021/03/20 10:34:57;;;;;;;1.70;1.50;;;10.40;72.80;;;;;;5073946;28;20053;-39
2021/03/20 10:37:32;;;;;;;1.42;1.33;;;10.40;72.80;;;;;;5073617;28;20057;-45
2021/03/20 10:40:08;;;;;;;1.50;1.38;;;10.40;72.80;;;;;;5072257;28;20047;-45
2021/03/20 10:42:39;;;;;;;1.48;1.38;;;10.50;72.80;;;;;;5074067;28;20393;-46
2021/03/20 10:45:22;;;;;;;2.15;1.63;;;10.50;72.80;;;;;;5073905;28;20048;-46
2021/03/20 10:47:48;;;;;;;1.85;1.50;;;10.50;72.80;;;;;;5073877;28;20044;-41
2021/03/20 10:50:31;;;;;;;1.92;1.58;;;10.50;72.80;;;;;;5071978;28;20051;-40
2021/03/20 10:53:04;;;;;;;1.75;1.40;;;10.50;72.70;;;;;;5073141;28;20522;-40
2021/03/20 10:55:39;;;;;;;1.67;1.40;;;10.50;72.80;;;;;;5071729;28;20397;-37
2021/03/20 10:58:07;;;;;;;1.27;1.17;;;10.50;72.70;;;;;;5063175;28;20050;-39
2021/03/20 11:00:46;;;;;;;1.20;1.10;;;10.50;72.70;;;;;;5073856;28;20382;-39
2021/03/20 11:03:14;;;;;;;1.40;1.30;;;10.50;72.70;;;;;;5054684;28;20045;-41
2021/03/20 11:05:42;;;;;;;1.50;1.20;;;10.50;72.70;;;;;;5053489;28;20045;-40
2021/03/20 11:08:20;;;;;;;1.50;1.40;;;10.50;72.70;;;;;;5053198;28;20067;-41
2021/03/20 11:11:08;;;;;;;1.35;1.25;;;10.50;72.70;;;;;;5053365;28;20051;-41
2021/03/20 11:13:59;;;;;;;2.28;1.30;;;10.50;72.60;;;;;;5056850;28;20067;-41
2021/03/20 11:16:27;;;;;;;1.48;1.30;;;10.50;72.70;;;;;;5055767;28;20059;-40
2021/03/20 11:19:07;;;;;;;1.45;1.10;;;10.50;72.60;;;;;;5073169;28;20076;-41
2021/03/20 11:21:40;;;;;;;1.65;1.40;;;10.50;72.60;;;;;;5073141;28;20125;-41
2021/03/20 11:24:22;;;;;;;1.40;1.30;;;10.60;72.70;;;;;;5072869;28;20107;-38
2021/03/20 11:26:50;;;;;;;1.45;1.25;;;10.70;72.70;;;;;;5073174;28;20044;-38
2021/03/20 11:29:25;;;;;;;1.30;1.20;;;10.50;72.60;;;;;;5073361;28;20051;-41
2021/03/20 11:31:58;;;;;;;1.20;1.10;;;10.50;72.60;;;;;;5072851;28;20048;-40
2021/03/20 11:34:42;;;;;;;1.65;1.30;;;10.60;72.60;;;;;;5073114;28;20052;-41
2021/03/20 11:37:25;;;;;;;1.27;1.17;;;10.50;72.50;;;;;;5072639;28;20053;-43
2021/03/20 11:39:59;;;;;;;1.55;1.33;;;10.60;72.60;;;;;;5073246;28;20094;-39
2021/03/20 11:42:29;;;;;;;1.40;1.25;;;10.60;72.60;;;;;;5073125;28;20049;-41
2021/03/20 11:44:56;;;;;;;1.25;1.15;;;10.60;72.60;;;;;;5072902;28;20500;-41
2021/03/20 11:47:27;;;;;;;1.48;1.27;;;10.60;72.60;;;;;;5072815;28;20071;-41
2021/03/20 11:49:56;;;;;;;1.75;1.50;;;10.60;72.60;;;;;;5071305;28;20049;-39
2021/03/20 11:52:35;;;;;;;1.42;1.15;;;10.60;72.60;;;;;;5052947;28;20049;-42
2021/03/20 11:55:03;;;;;;;1.83;1.30;;;10.60;72.60;;;;;;5052530;28;20128;-41
2021/03/20 11:57:31;;;;;;;1.10;1.00;;;10.60;72.60;;;;;;5052720;28;20501;-40
2021/03/20 11:59:57;;;;;;;1.20;1.10;;;10.60;72.50;;;;;;5052551;28;20056;-43
2021/03/20 12:02:25;;;;;;;1.35;1.25;;;10.60;72.50;;;;;;5052919;28;20045;-42
2021/03/20 12:05:06;;;;;;;1.58;1.20;;;10.60;72.50;;;;;;5052887;28;20072;-39
2021/03/20 12:07:33;;;;;;;1.65;1.40;;;10.60;73.20;;;;;;5059971;28;20120;-41
2021/03/20 12:10:19;;;;;;;1.48;1.23;;;10.60;72.50;;;;;;5057513;28;20049;-40
2021/03/20 12:12:56;;;;;;;1.40;1.30;;;10.60;72.50;;;;;;5056949;28;20048;-40
2021/03/20 12:15:26;;;;;;;1.25;1.15;;;10.60;72.50;;;;;;5072531;28;20049;-42
2021/03/20 12:17:53;;;;;;;1.25;1.13;;;10.60;72.50;;;;;;5072609;28;20086;-42
2021/03/20 12:20:32;;;;;;;1.40;1.30;;;10.60;72.50;;;;;;5072483;28;20398;-42
2021/03/20 12:23:10;;;;;;;1.17;1.08;;;10.60;72.50;;;;;;5072362;28;20481;-42
2021/03/20 12:25:39;;;;;;;1.40;1.30;;;10.60;72.40;;;;;;5072166;28;20056;-44
2021/03/20 12:28:38;;;;;;;1.73;1.23;;;10.60;72.50;;;;;;5072467;28;20051;-42
2021/03/20 12:31:12;;;;;;;1.20;0.80;;;10.60;72.40;;;;;;5072467;28;20061;-41
2021/03/20 12:33:43;;;;;;;1.38;1.20;;;10.60;72.40;;;;;;5072598;28;20059;-42
2021/03/20 12:36:27;;;;;;;1.88;1.45;;;10.60;72.40;;;;;;5075710;28;20052;-42
2021/03/20 12:38:54;;;;;;;1.48;1.33;;;10.60;72.40;;;;;;5076051;28;20061;-42
2021/03/20 12:41:23;;;;;;;1.15;1.05;;;10.60;72.40;;;;;;5075995;28;20053;-44
2021/03/20 12:44:07;;;;;;;1.33;1.20;;;10.60;72.40;;;;;;5076107;28;20047;-42
2021/03/20 12:46:34;;;;;;;1.58;1.00;;;10.60;72.40;;;;;;5076388;28;20398;-42
2021/03/20 12:48:59;;;;;;;0.90;0.90;;;10.60;72.40;;;;;;5076182;28;20055;-42
2021/03/20 12:51:25;;;;;;;1.65;1.00;;;10.60;72.40;;;;;;5061596;28;20417;-42
2021/03/20 12:53:51;;;;;;;0.98;0.98;;;10.60;72.40;;;;;;5055919;28;20060;-43
2021/03/20 12:56:17;;;;;;;1.10;1.00;;;10.60;72.40;;;;;;5055869;28;20119;-42
2021/03/20 12:58:43;;;;;;;1.15;1.05;;;10.60;72.40;;;;;;5055882;28;20045;-42
2021/03/20 13:01:09;;;;;;;1.33;1.13;;;10.70;72.50;;;;;;5056151;28;20048;-42
2021/03/20 13:03:35;;;;;;;1.13;1.02;;;10.60;72.40;;;;;;5055964;28;20049;-42
2021/03/20 13:06:01;;;;;;;1.33;1.20;;;10.60;72.40;;;;;;5055992;28;20114;-42
2021/03/20 13:08:27;;;;;;;1.27;1.10;;;10.60;72.40;;;;;;5055906;28;20494;-41
2021/03/20 13:10:53;;;;;;;1.20;1.10;;;10.60;72.40;;;;;;5055341;28;20072;-45
2021/03/20 13:13:20;;;;;;;1.38;1.13;;;10.60;72.40;;;;;;5055478;28;20494;-41
2021/03/20 13:15:46;;;;;;;1.52;1.15;;;10.60;72.40;;;;;;5055773;28;20405;-42
2021/03/20 13:18:12;;;;;;;1.10;0.98;;;10.60;72.40;;;;;;5055607;28;20053;-41
2021/03/20 13:20:39;;;;;;;1.38;1.15;;;10.60;72.40;;;;;;5038014;28;20045;-42
2021/03/20 13:23:04;;;;;;;1.17;0.85;;;10.70;72.40;;;;;;5055499;28;20062;-41
2021/03/20 13:25:34;;;;;;;1.25;1.00;;;10.60;72.40;;;;;;5054835;28;20528;-44
2021/03/20 13:27:59;;;;;;;1.45;1.20;;;10.60;72.40;;;;;;5055169;28;20056;-39
2021/03/20 13:30:31;;;;;;;1.10;0.95;;;10.60;72.40;;;;;;5055265;28;20044;-42
2021/03/20 13:32:57;;;;;;;1.00;0.80;;;10.60;72.40;;;;;;5055395;28;20152;-41